Time;durP1;ratioP1;P1;durP2;ratioP2;P2;SDS_P1;SDS_P2;PMS_P1;PMS_P2;Temp;Humidity;BMP_temperature;BMP_pressure;BME280_temperature;BME280_humidity;BME280_pressure;Samples;Min_cycle;Max_cycle;Signal;HPM_P1;HPM_P2
2022/01/19 00:01:30;;;;;;;;;;;;;;;;;;5047672;28;19924;-71
2022/01/19 00:03:57;;;;;;;;;;;;;;;;;;5043229;28;19940;-71
2022/01/19 00:06:24;;;;;;;;;;;;;;;;;;5049648;28;19932;-70
2022/01/19 00:08:52;;;;;;;;;;;;;;;;;;5049382;28;19925;-72
2022/01/19 00:11:19;;;;;;;;;;;;;;;;;;5047326;28;19929;-72
2022/01/19 00:13:46;;;;;;;;;;;;;;;;;;5045089;28;19929;-71
2022/01/19 00:16:13;;;;;;;;;;;;;;;;;;5053728;28;19925;-73
2022/01/19 00:18:40;;;;;;;;;;;;;;;;;;5043298;28;19932;-74
2022/01/19 00:21:07;;;;;;;;;;;;;;;;;;5050502;28;19924;-73
2022/01/19 00:23:33;;;;;;;;;;;;;;;;;;5048272;28;19925;-73
2022/01/19 00:26:00;;;;;;;;;;;;;;;;;;5047759;28;20291;-72
2022/01/19 00:28:27;;;;;;;;;;;;;;;;;;5035414;28;19936;-71
2022/01/19 00:30:54;;;;;;;;;;;;;;;;;;5041311;28;19925;-71
2022/01/19 00:33:21;;;;;;;;;;;;;;;;;;5040162;28;19925;-71
2022/01/19 00:35:48;;;;;;;;;;;;;;;;;;5054682;28;19928;-71
2022/01/19 00:38:15;;;;;;;;;;;;;;;;;;5053821;28;20008;-71
2022/01/19 00:40:42;;;;;;;;;;;;;;;;;;5047539;28;20308;-71
2022/01/19 00:43:09;;;;;;;;;;;;;;;;;;5046710;28;19948;-71
2022/01/19 00:45:36;;;;;;;;;;;;;;;;;;5057030;28;19931;-72
2022/01/19 00:48:03;;;;;;;;;;;;;;;;;;5043766;28;19925;-71
2022/01/19 00:50:30;;;;;;;;;;;;;;;;;;5044596;28;19931;-70
2022/01/19 00:52:57;;;;;;;;;;;;;;;;;;5043840;28;19932;-71
2022/01/19 00:55:24;;;;;;;;;;;;;;;;;;5045010;28;19936;-72
2022/01/19 00:57:51;;;;;;;;;;;;;;;;;;5046919;28;19933;-73
2022/01/19 01:00:18;;;;;;;;;;;;;;;;;;5044017;28;20393;-71
2022/01/19 01:02:45;;;;;;;;;;;;;;;;;;5041947;28;20283;-70
2022/01/19 01:05:12;;;;;;;;;;;;;;;;;;5041174;28;19932;-72
2022/01/19 01:07:40;;;;;;;;;;;;;;;;;;5040239;28;19932;-70
2022/01/19 01:10:07;;;;;;;;;;;;;;;;;;5042487;28;19963;-71
2022/01/19 01:12:44;;;;;;;;;;;;;;;;;;5040073;28;19925;-70
2022/01/19 01:18:20;;;;;;;;;;;;;;;;;;5039035;22;20370;-67
2022/01/19 01:20:47;;;;;;;;;;;;;;;;;;5025419;28;20015;-68
2022/01/19 01:23:14;;;;;;;;;;;;;;;;;;5025947;28;19936;-68
2022/01/19 01:25:41;;;;;;;;;;;;;;;;;;5030546;28;19925;-69
2022/01/19 01:28:08;;;;;;;;;;;;;;;;;;5030798;28;19955;-69
2022/01/19 01:30:35;;;;;;;;;;;;;;;;;;5032321;28;19929;-69
2022/01/19 01:33:02;;;;;;;;;;;;;;;;;;5029722;28;19925;-69
2022/01/19 01:35:30;;;;;;;;;;;;;;;;;;5027565;28;19925;-69
2022/01/19 01:37:57;;;;;;;;;;;;;;;;;;5031256;28;20008;-71
2022/01/19 01:40:25;;;;;;;;;;;;;;;;;;5032292;28;20012;-70
2022/01/19 01:42:52;;;;;;;;;;;;;;;;;;5026506;28;20414;-70
2022/01/19 01:45:24;;;;;;;;;;;;;;;;;;5031049;28;20306;-69
2022/01/19 01:48:00;;;;;;;;;;;;;;;;;;5033005;28;19956;-69
2022/01/19 01:53:27;;;;;;;;;;;;;;;;;;5028824;28;20402;-69
2022/01/19 01:55:53;;;;;;;;;;;;;;;;;;5030975;28;19936;-68
2022/01/19 01:58:20;;;;;;;;;;;;;;;;;;5031740;28;20287;-69
2022/01/19 02:00:47;;;;;;;;;;;;;;;;;;5031862;28;20378;-69
2022/01/19 02:03:14;;;;;;;;;;;;;;;;;;5029057;28;19929;-69
2022/01/19 02:05:54;;;;;;;;;;;;;;;;;;5026131;28;19943;-68
2022/01/19 02:08:23;;;;;;;;;;;;;;;;;;5028123;28;20012;-70
2022/01/19 02:11:04;;;;;;;;;;;;;;;;;;5032195;28;19925;-69
2022/01/19 02:16:25;;;;;;;;;;;;;;;;;;5031182;28;19979;-69
2022/01/19 02:21:39;;;;;;;;;;;;;;;;;;5029701;28;20447;-68
2022/01/19 02:24:08;;;;;;;;;;;;;;;;;;5031469;28;19936;-68
2022/01/19 02:26:49;;;;;;;;;;;;;;;;;;5032419;28;20011;-69
2022/01/19 02:29:27;;;;;;;;;;;;;;;;;;5031019;28;19925;-68
2022/01/19 02:40:15;;;;;;;;;;;;;;;;;;5025151;28;19921;-69
2022/01/19 02:42:52;;;;;;;;;;;;;;;;;;5031784;28;19952;-70
2022/01/19 02:50:49;;;;;;;;;;;;;;;;;;5027322;28;19924;-70
2022/01/19 02:53:16;;;;;;;;;;;;;;;;;;5030107;28;19925;-70
2022/01/19 02:55:44;;;;;;;;;;;;;;;;;;5027639;28;19968;-70
2022/01/19 02:58:11;;;;;;;;;;;;;;;;;;5026593;28;20283;-69
2022/01/19 03:08:42;;;;;;;;;;;;;;;;;;5030637;28;20047;-71
2022/01/19 03:09:04;;;;;;;;;;;;;;;;;;5027195;28;20434;-71
2022/01/19 03:11:31;;;;;;;;;;;;;;;;;;5029115;28;20008;-70
2022/01/19 03:13:58;;;;;;;;;;;;;;;;;;5027964;28;20379;-70
2022/01/19 03:16:25;;;;;;;;;;;;;;;;;;5031719;28;20268;-70
2022/01/19 03:18:52;;;;;;;;;;;;;;;;;;5029543;28;19925;-70
2022/01/19 03:21:19;;;;;;;;;;;;;;;;;;5031267;28;19929;-69
2022/01/19 03:23:46;;;;;;;;;;;;;;;;;;5030390;28;20385;-70
2022/01/19 03:26:13;;;;;;;;;;;;;;;;;;5030614;28;19935;-70
2022/01/19 03:28:40;;;;;;;;;;;;;;;;;;5026933;28;19925;-70
2022/01/19 03:31:07;;;;;;;;;;;;;;;;;;5032665;28;19929;-70
2022/01/19 03:33:34;;;;;;;;;;;;;;;;;;5024747;28;19933;-70
2022/01/19 03:36:01;;;;;;;;;;;;;;;;;;5027774;28;19933;-70
2022/01/19 03:38:28;;;;;;;;;;;;;;;;;;5030519;28;19925;-70
2022/01/19 03:40:55;;;;;;;;;;;;;;;;;;5029281;28;19933;-70
2022/01/19 03:43:22;;;;;;;;;;;;;;;;;;5031150;28;19925;-70
2022/01/19 03:45:52;;;;;;;;;;;;;;;;;;5027322;28;19925;-71
2022/01/19 03:48:34;;;;;;;;;;;;;;;;;;5030508;28;20155;-71
2022/01/19 03:51:01;;;;;;;;;;;;;;;;;;5030262;28;19948;-68
2022/01/19 03:53:29;;;;;;;;;;;;;;;;;;5027065;28;20281;-68
2022/01/19 03:55:56;;;;;;;;;;;;;;;;;;5027430;28;19936;-69
2022/01/19 03:58:23;;;;;;;;;;;;;;;;;;5029336;28;19925;-69
2022/01/19 04:00:54;;;;;;;;;;;;;;;;;;5027628;28;19929;-70
2022/01/19 04:03:26;;;;;;;;;;;;;;;;;;5029106;28;19925;-69
2022/01/19 04:05:59;;;;;;;;;;;;;;;;;;5030257;28;19940;-69
2022/01/19 04:08:26;;;;;;;;;;;;;;;;;;5028742;28;19925;-69
2022/01/19 04:10:53;;;;;;;;;;;;;;;;;;5021649;28;20311;-68
2022/01/19 04:13:30;;;;;;;;;;;;;;;;;;5028449;28;19929;-69
2022/01/19 04:15:57;;;;;;;;;;;;;;;;;;5028050;28;20390;-69
2022/01/19 04:18:24;;;;;;;;;;;;;;;;;;5029960;28;19931;-70
2022/01/19 04:20:52;;;;;;;;;;;;;;;;;;5027829;28;19925;-71
2022/01/19 04:23:19;;;;;;;;;;;;;;;;;;5030545;28;20009;-70
2022/01/19 04:25:46;;;;;;;;;;;;;;;;;;5027082;28;19957;-70
2022/01/19 04:28:14;;;;;;;;;;;;;;;;;;5030138;28;19936;-70
2022/01/19 04:30:41;;;;;;;;;;;;;;;;;;5026842;28;19925;-70
2022/01/19 04:33:11;;;;;;;;;;;;;;;;;;5027614;28;21264;-69
2022/01/19 04:35:46;;;;;;;;;;;;;;;;;;5020262;28;19969;-69
2022/01/19 05:01:36;;;;;;;;;;;;;;;;;;5027988;28;20305;-69
2022/01/19 05:03:24;;;;;;;;;;;;;;;;;;5024435;28;20094;-69
2022/01/19 05:05:57;;;;;;;;;;;;;;;;;;5025800;28;19929;-68
2022/01/19 05:08:43;;;;;;;;;;;;;;;;;;5026829;28;19929;-69
2022/01/19 05:13:55;;;;;;;;;;;;;;;;;;5026316;28;19931;-68
2022/01/19 05:16:22;;;;;;;;;;;;;;;;;;5026755;28;19925;-68
2022/01/19 05:18:49;;;;;;;;;;;;;;;;;;5026935;28;19960;-68
2022/01/19 05:21:16;;;;;;;;;;;;;;;;;;5025920;28;20375;-68
2022/01/19 05:23:43;;;;;;;;;;;;;;;;;;5027591;28;19931;-68
2022/01/19 05:26:10;;;;;;;;;;;;;;;;;;5028391;28;19929;-68
2022/01/19 05:28:36;;;;;;;;;;;;;;;;;;5027683;28;20371;-68
2022/01/19 05:31:03;;;;;;;;;;;;;;;;;;5026697;28;19929;-70
2022/01/19 05:33:30;;;;;;;;;;;;;;;;;;5026792;28;19925;-70
2022/01/19 05:35:57;;;;;;;;;;;;;;;;;;5026868;28;19926;-68
2022/01/19 05:38:25;;;;;;;;;;;;;;;;;;5027842;28;19933;-68
2022/01/19 05:40:52;;;;;;;;;;;;;;;;;;5028829;28;20016;-68
2022/01/19 05:43:19;;;;;;;;;;;;;;;;;;5025972;28;19925;-70
2022/01/19 05:45:45;;;;;;;;;;;;;;;;;;5028924;28;20404;-69
2022/01/19 05:48:12;;;;;;;;;;;;;;;;;;5024788;28;19936;-69
2022/01/19 05:50:39;;;;;;;;;;;;;;;;;;5027412;28;19926;-68
2022/01/19 05:53:06;;;;;;;;;;;;;;;;;;5025439;28;20382;-69
2022/01/19 05:55:33;;;;;;;;;;;;;;;;;;5023325;28;19931;-68
2022/01/19 05:58:00;;;;;;;;;;;;;;;;;;5025905;28;19932;-68
2022/01/19 06:00:27;;;;;;;;;;;;;;;;;;5027920;28;19932;-68
2022/01/19 06:02:54;;;;;;;;;;;;;;;;;;5027634;28;19925;-69
2022/01/19 06:05:21;;;;;;;;;;;;;;;;;;5024960;28;20271;-68
2022/01/19 06:07:49;;;;;;;;;;;;;;;;;;5028934;28;19943;-68
2022/01/19 06:12:56;;;;;;;;;;;;;;;;;;5031612;28;19991;-69
2022/01/19 06:15:23;;;;;;;;;;;;;;;;;;5030542;28;19936;-69
2022/01/19 06:17:50;;;;;;;;;;;;;;;;;;5031693;28;19931;-70
2022/01/19 06:20:17;;;;;;;;;;;;;;;;;;5031490;28;19925;-69
2022/01/19 06:22:44;;;;;;;;;;;;;;;;;;5028083;28;19925;-69
2022/01/19 06:25:11;;;;;;;;;;;;;;;;;;5028751;28;19924;-69
2022/01/19 06:27:38;;;;;;;;;;;;;;;;;;5031730;28;19932;-70
2022/01/19 06:30:05;;;;;;;;;;;;;;;;;;5029862;28;19937;-71
2022/01/19 06:32:32;;;;;;;;;;;;;;;;;;5029728;28;20009;-67
2022/01/19 06:34:59;;;;;;;;;;;;;;;;;;5031291;28;19932;-68
2022/01/19 06:37:26;;;;;;;;;;;;;;;;;;5028289;28;19929;-69
2022/01/19 06:39:52;;;;;;;;;;;;;;;;;;5028732;28;19936;-68
2022/01/19 06:42:19;;;;;;;;;;;;;;;;;;5031123;28;19925;-68
2022/01/19 06:44:46;;;;;;;;;;;;;;;;;;5030815;28;20382;-68
2022/01/19 06:47:13;;;;;;;;;;;;;;;;;;5026353;28;19933;-68
2022/01/19 06:49:40;;;;;;;;;;;;;;;;;;5031074;28;20295;-68
2022/01/19 06:52:07;;;;;;;;;;;;;;;;;;5030831;28;19926;-69
2022/01/19 06:54:34;;;;;;;;;;;;;;;;;;5026638;28;20314;-69
2022/01/19 06:57:01;;;;;;;;;;;;;;;;;;5029665;28;19925;-69
2022/01/19 06:59:28;;;;;;;;;;;;;;;;;;5030591;28;19925;-70
2022/01/19 07:01:55;;;;;;;;;;;;;;;;;;5029905;28;20135;-69
2022/01/19 07:04:22;;;;;;;;;;;;;;;;;;5027742;28;20296;-69
2022/01/19 07:06:49;;;;;;;;;;;;;;;;;;5026844;28;19925;-70
2022/01/19 07:09:15;;;;;;;;;;;;;;;;;;5029773;28;20304;-69
2022/01/19 07:11:42;;;;;;;;;;;;;;;;;;5031117;28;20054;-70
2022/01/19 07:14:12;;;;;;;;;;;;;;;;;;5027128;28;19925;-69
2022/01/19 07:16:39;;;;;;;;;;;;;;;;;;5029869;28;19926;-69
2022/01/19 07:19:06;;;;;;;;;;;;;;;;;;5023591;28;19925;-69
2022/01/19 07:21:33;;;;;;;;;;;;;;;;;;5031384;28;19936;-69
2022/01/19 07:24:00;;;;;;;;;;;;;;;;;;5025346;28;20029;-69
2022/01/19 07:26:27;;;;;;;;;;;;;;;;;;5029291;28;19952;-68
2022/01/19 07:28:54;;;;;;;;;;;;;;;;;;5028092;28;20024;-68
2022/01/19 07:31:20;;;;;;;;;;;;;;;;;;5030836;28;20387;-72
2022/01/19 07:33:47;;;;;;;;;;;;;;;;;;5029993;28;19925;-70
2022/01/19 07:36:15;;;;;;;;;;;;;;;;;;5030570;28;19932;-69
2022/01/19 07:38:42;;;;;;;;;;;;;;;;;;5027340;28;20629;-67
2022/01/19 07:41:10;;;;;;;;;;;;;;;;;;5030403;28;19925;-68
2022/01/19 07:43:37;;;;;;;;;;;;;;;;;;5030791;28;19967;-69
2022/01/19 07:46:04;;;;;;;;;;;;;;;;;;5027237;28;19979;-67
2022/01/19 07:48:31;;;;;;;;;;;;;;;;;;5028755;28;19925;-72
2022/01/19 07:50:58;;;;;;;;;;;;;;;;;;5026510;28;20180;-71
2022/01/19 07:53:25;;;;;;;;;;;;;;;;;;5027923;28;20330;-71
2022/01/19 07:55:53;;;;;;;;;;;;;;;;;;5029678;28;19932;-69
2022/01/19 07:58:20;;;;;;;;;;;;;;;;;;5025608;28;20008;-68
2022/01/19 08:00:47;;;;;;;;;;;;;;;;;;5029615;28;19932;-68
2022/01/19 08:03:15;;;;;;;;;;;;;;;;;;5027944;28;19925;-71
2022/01/19 08:05:42;;;;;;;;;;;;;;;;;;5028106;28;19931;-68
2022/01/19 08:08:08;;;;;;;;;;;;;;;;;;5021904;28;19925;-68
2022/01/19 08:10:35;;;;;;;;;;;;;;;;;;5004734;28;19984;-70
2022/01/19 08:13:04;;;;;;;;;;;;;;;;;;5015400;28;19933;-68
2022/01/19 08:15:31;;;;;;;;;;;;;;;;;;5024341;28;20305;-69
2022/01/19 08:17:58;;;;;;;;;;;;;;;;;;5024311;28;19940;-68
2022/01/19 08:20:25;;;;;;;;;;;;;;;;;;5020634;28;19925;-68
2022/01/19 08:22:52;;;;;;;;;;;;;;;;;;5021870;28;20292;-68
2022/01/19 08:25:19;;;;;;;;;;;;;;;;;;5028618;28;19929;-68
2022/01/19 08:27:46;;;;;;;;;;;;;;;;;;5026714;28;19936;-68
2022/01/19 08:30:13;;;;;;;;;;;;;;;;;;5024983;28;19925;-68
2022/01/19 08:32:40;;;;;;;;;;;;;;;;;;5028421;28;20343;-68
2022/01/19 08:35:07;;;;;;;;;;;;;;;;;;5026117;28;19932;-68
2022/01/19 08:37:34;;;;;;;;;;;;;;;;;;5026109;28;20444;-68
2022/01/19 08:40:01;;;;;;;;;;;;;;;;;;5020856;28;20528;-68
2022/01/19 08:42:28;;;;;;;;;;;;;;;;;;5027146;28;19925;-68
2022/01/19 08:44:55;;;;;;;;;;;;;;;;;;5025853;28;19971;-68
2022/01/19 08:47:22;;;;;;;;;;;;;;;;;;5016137;28;19932;-70
2022/01/19 08:49:49;;;;;;;;;;;;;;;;;;5022660;28;20406;-68
2022/01/19 08:52:16;;;;;;;;;;;;;;;;;;5022494;28;19933;-67
2022/01/19 08:54:45;;;;;;;;;;;;;;;;;;5024058;28;19932;-69
2022/01/19 08:57:12;;;;;;;;;;;;;;;;;;5026955;28;20003;-66
2022/01/19 08:59:39;;;;;;;;;;;;;;;;;;5029014;28;19925;-67
2022/01/19 09:02:06;;;;;;;;;;;;;;;;;;5027225;28;20019;-67
2022/01/19 09:04:33;;;;;;;;;;;;;;;;;;5026943;28;19933;-69
2022/01/19 09:07:00;;;;;;;;;;;;;;;;;;5027605;28;19936;-67
2022/01/19 09:09:27;;;;;;;;;;;;;;;;;;5025857;28;19936;-69
2022/01/19 09:11:54;;;;;;;;;;;;;;;;;;5032809;28;19932;-68
2022/01/19 09:14:20;;;;;;;;;;;;;;;;;;5030750;28;20302;-68
2022/01/19 09:16:49;;;;;;;;;;;;;;;;;;5027413;28;19945;-69
2022/01/19 09:19:16;;;;;;;;;;;;;;;;;;5025334;28;20025;-70
2022/01/19 09:21:43;;;;;;;;;;;;;;;;;;5026109;28;19933;-68
2022/01/19 09:24:10;;;;;;;;;;;;;;;;;;5024261;28;19929;-70
2022/01/19 09:26:37;;;;;;;;;;;;;;;;;;5027442;28;20023;-69
2022/01/19 09:29:04;;;;;;;;;;;;;;;;;;5029652;28;19978;-71
2022/01/19 09:31:33;;;;;;;;;;;;;;;;;;5026229;28;19932;-72
2022/01/19 09:34:08;;;;;;;;;;;;;;;;;;5024668;28;20398;-66
2022/01/19 09:36:36;;;;;;;;;;;;;;;;;;5025016;28;20376;-70
2022/01/19 09:39:03;;;;;;;;;;;;;;;;;;5023928;28;19925;-69
2022/01/19 09:41:30;;;;;;;;;;;;;;;;;;5025303;28;19925;-68
2022/01/19 09:43:57;;;;;;;;;;;;;;;;;;5027204;28;19925;-69
2022/01/19 09:46:24;;;;;;;;;;;;;;;;;;5030272;28;19925;-68
2022/01/19 09:48:51;;;;;;;;;;;;;;;;;;5024156;28;19925;-69
2022/01/19 09:51:19;;;;;;;;;;;;;;;;;;5031396;28;20290;-71
2022/01/19 09:53:46;;;;;;;;;;;;;;;;;;5032719;28;19929;-69
2022/01/19 09:56:13;;;;;;;;;;;;;;;;;;5028074;28;19932;-71
2022/01/19 09:58:40;;;;;;;;;;;;;;;;;;5021046;28;19965;-70
2022/01/19 10:01:07;;;;;;;;;;;;;;;;;;5021937;28;19925;-68
2022/01/19 10:03:34;;;;;;;;;;;;;;;;;;5033505;28;20063;-71
2022/01/19 10:06:02;;;;;;;;;;;;;;;;;;5030071;28;19925;-71
2022/01/19 10:08:29;;;;;;;;;;;;;;;;;;5024793;28;19933;-69
2022/01/19 10:10:59;;;;;;;;;;;;;;;;;;5029996;28;19929;-71
2022/01/19 10:18:55;;;;;;;;;;;;;;;;;;5026731;28;20394;-70
2022/01/19 10:21:22;;;;;;;;;;;;;;;;;;5024889;28;20474;-71
2022/01/19 10:23:51;;;;;;;;;;;;;;;;;;5028749;28;19926;-69
2022/01/19 10:26:18;;;;;;;;;;;;;;;;;;5032222;28;20313;-70
2022/01/19 10:28:45;;;;;;;;;;;;;;;;;;5025763;28;19925;-69
2022/01/19 10:31:12;;;;;;;;;;;;;;;;;;5030662;28;20334;-68
2022/01/19 10:33:39;;;;;;;;;;;;;;;;;;5031214;28;20283;-69
2022/01/19 10:36:06;;;;;;;;;;;;;;;;;;5031289;28;19929;-70
2022/01/19 10:38:33;;;;;;;;;;;;;;;;;;5029998;28;19952;-69
2022/01/19 10:41:02;;;;;;;;;;;;;;;;;;5029000;28;20032;-70
2022/01/19 10:43:29;;;;;;;;;;;;;;;;;;5030215;28;20563;-71
2022/01/19 10:45:56;;;;;;;;;;;;;;;;;;5028940;28;19936;-69
2022/01/19 10:48:23;;;;;;;;;;;;;;;;;;5028018;28;20020;-70
2022/01/19 10:50:50;;;;;;;;;;;;;;;;;;5031223;28;19925;-69
2022/01/19 10:53:17;;;;;;;;;;;;;;;;;;5029575;28;19929;-69
2022/01/19 10:55:44;;;;;;;;;;;;;;;;;;5025411;28;19944;-70
2022/01/19 10:58:11;;;;;;;;;;;;;;;;;;5028304;28;19968;-70
2022/01/19 11:00:38;;;;;;;;;;;;;;;;;;5027263;28;19925;-68
2022/01/19 11:03:05;;;;;;;;;;;;;;;;;;5030327;28;20384;-69
2022/01/19 11:05:32;;;;;;;;;;;;;;;;;;5025959;28;19925;-69
2022/01/19 11:07:59;;;;;;;;;;;;;;;;;;5032427;28;19935;-69
2022/01/19 11:10:26;;;;;;;;;;;;;;;;;;5029769;28;19929;-69
2022/01/19 11:12:55;;;;;;;;;;;;;;;;;;5026622;28;19955;-71
2022/01/19 11:15:22;;;;;;;;;;;;;;;;;;5029993;28;20659;-68
2022/01/19 11:17:49;;;;;;;;;;;;;;;;;;5031126;28;19931;-69
2022/01/19 11:20:16;;;;;;;;;;;;;;;;;;5030208;28;19924;-69
2022/01/19 11:22:43;;;;;;;;;;;;;;;;;;5025573;28;20040;-71
2022/01/19 11:25:11;;;;;;;;;;;;;;;;;;5028414;28;20299;-71
2022/01/19 11:27:38;;;;;;;;;;;;;;;;;;5029953;28;20390;-68
2022/01/19 11:30:05;;;;;;;;;;;;;;;;;;5027803;28;19929;-71
2022/01/19 11:32:32;;;;;;;;;;;;;;;;;;5028978;28;20000;-69
2022/01/19 11:34:59;;;;;;;;;;;;;;;;;;5027438;28;19947;-69
2022/01/19 11:37:26;;;;;;;;;;;;;;;;;;5030368;28;20009;-71
2022/01/19 11:39:53;;;;;;;;;;;;;;;;;;5031048;28;20004;-70
2022/01/19 11:42:20;;;;;;;;;;;;;;;;;;5028441;28;19932;-70
2022/01/19 11:44:47;;;;;;;;;;;;;;;;;;5029115;28;19932;-69
2022/01/19 11:47:16;;;;;;;;;;;;;;;;;;5029037;28;19929;-70
2022/01/19 11:49:43;;;;;;;;;;;;;;;;;;5030308;28;20342;-71
2022/01/19 11:52:10;;;;;;;;;;;;;;;;;;5027788;28;20298;-70
2022/01/19 11:54:37;;;;;;;;;;;;;;;;;;5026265;28;19932;-70
2022/01/19 11:57:04;;;;;;;;;;;;;;;;;;5027104;28;19925;-69
2022/01/19 11:59:31;;;;;;;;;;;;;;;;;;5028915;28;19964;-69
2022/01/19 12:01:58;;;;;;;;;;;;;;;;;;5028666;28;19925;-70
2022/01/19 12:04:25;;;;;;;;;;;;;;;;;;5031187;28;20123;-69
2022/01/19 12:06:52;;;;;;;;;;;;;;;;;;5029053;28;19929;-69
2022/01/19 12:09:19;;;;;;;;;;;;;;;;;;5030325;28;19951;-68
2022/01/19 12:11:50;;;;;;;;;;;;;;;;;;5027339;28;19929;-70
2022/01/19 12:14:19;;;;;;;;;;;;;;;;;;5027531;28;19963;-69
2022/01/19 12:16:53;;;;;;;;;;;;;;;;;;5025247;28;20019;-70
2022/01/19 12:19:21;;;;;;;;;;;;;;;;;;5022567;28;19926;-68
2022/01/19 12:21:48;;;;;;;;;;;;;;;;;;5026714;28;19925;-70
2022/01/19 12:24:15;;;;;;;;;;;;;;;;;;5025657;28;19926;-70
2022/01/19 12:26:42;;;;;;;;;;;;;;;;;;5027916;28;19925;-69
2022/01/19 12:29:09;;;;;;;;;;;;;;;;;;5027892;28;19925;-70
2022/01/19 12:31:50;;;;;;;;;;;;;;;;;;5016052;28;19939;-71
2022/01/19 12:34:19;;;;;;;;;;;;;;;;;;5024560;28;20395;-70
2022/01/19 12:36:47;;;;;;;;;;;;;;;;;;5025836;28;19933;-68
2022/01/19 12:39:14;;;;;;;;;;;;;;;;;;5021287;28;19940;-71
2022/01/19 12:41:41;;;;;;;;;;;;;;;;;;5017402;28;19925;-68
2022/01/19 12:44:08;;;;;;;;;;;;;;;;;;5024090;28;19951;-69
2022/01/19 12:46:35;;;;;;;;;;;;;;;;;;5025292;28;19941;-70
2022/01/19 12:49:02;;;;;;;;;;;;;;;;;;5024366;28;19932;-70
2022/01/19 12:51:29;;;;;;;;;;;;;;;;;;5025097;28;20402;-68
2022/01/19 12:53:56;;;;;;;;;;;;;;;;;;5024721;28;20397;-69
2022/01/19 12:56:22;;;;;;;;;;;;;;;;;;5025166;28;20383;-71
2022/01/19 12:58:49;;;;;;;;;;;;;;;;;;5024321;28;19940;-68
2022/01/19 13:01:17;;;;;;;;;;;;;;;;;;5025427;28;20278;-69
2022/01/19 13:03:45;;;;;;;;;;;;;;;;;;5026014;28;19929;-69
2022/01/19 13:06:13;;;;;;;;;;;;;;;;;;5028956;28;20340;-69
2022/01/19 13:08:43;;;;;;;;;;;;;;;;;;5025207;28;19929;-68
2022/01/19 13:11:11;;;;;;;;;;;;;;;;;;5021024;28;20629;-69
2022/01/19 13:13:38;;;;;;;;;;;;;;;;;;5027288;28;20394;-70
2022/01/19 13:16:06;;;;;;;;;;;;;;;;;;5024045;28;20383;-69
2022/01/19 13:18:33;;;;;;;;;;;;;;;;;;5039501;23;19929;-71
2022/01/19 13:21:02;;;;;;;;;;;;;;;;;;5056531;28;19968;-70
2022/01/19 13:23:29;;;;;;;;;;;;;;;;;;5052474;28;20002;-71
2022/01/19 13:25:56;;;;;;;;;;;;;;;;;;5051127;28;20489;-70
2022/01/19 13:28:23;;;;;;;;;;;;;;;;;;5057952;28;19928;-71
2022/01/19 13:30:50;;;;;;;;;;;;;;;;;;5055642;28;20302;-70
2022/01/19 13:33:17;;;;;;;;;;;;;;;;;;5060279;28;19924;-70
2022/01/19 13:35:44;;;;;;;;;;;;;;;;;;5053768;28;19924;-71
2022/01/19 13:38:11;;;;;;;;;;;;;;;;;;5057378;28;20436;-71
2022/01/19 13:40:38;;;;;;;;;;;;;;;;;;5056835;28;20151;-69
2022/01/19 13:43:05;;;;;;;;;;;;;;;;;;5060511;28;19925;-68
2022/01/19 13:45:37;;;;;;;;;;;;;;;;;;5056023;28;19943;-70
2022/01/19 13:48:09;;;;;;;;;;;;;;;;;;5055115;28;19929;-70
2022/01/19 13:50:36;;;;;;;;;;;;;;;;;;5060337;28;19933;-70
2022/01/19 13:53:03;;;;;;;;;;;;;;;;;;5055940;28;19924;-70
2022/01/19 13:55:29;;;;;;;;;;;;;;;;;;5061173;28;19925;-71
2022/01/19 13:57:56;;;;;;;;;;;;;;;;;;5059481;28;19924;-71
2022/01/19 14:00:23;;;;;;;;;;;;;;;;;;5058477;28;19948;-71
2022/01/19 14:02:50;;;;;;;;;;;;;;;;;;5052707;28;19944;-71
2022/01/19 14:05:17;;;;;;;;;;;;;;;;;;5046777;28;20287;-71
2022/01/19 14:07:44;;;;;;;;;;;;;;;;;;5060687;28;19925;-71
2022/01/19 14:10:11;;;;;;;;;;;;;;;;;;5060831;28;19952;-71
2022/01/19 14:12:38;;;;;;;;;;;;;;;;;;5049497;28;19925;-70
2022/01/19 14:15:09;;;;;;;;;;;;;;;;;;5052007;28;20153;-70
2022/01/19 14:17:37;;;;;;;;;;;;;;;;;;5051789;28;19924;-70
2022/01/19 14:20:04;;;;;;;;;;;;;;;;;;5060713;28;19931;-70
2022/01/19 14:22:32;;;;;;;;;;;;;;;;;;5062561;28;20025;-70
2022/01/19 14:24:59;;;;;;;;;;;;;;;;;;5050957;28;19930;-70
2022/01/19 14:27:26;;;;;;;;;;;;;;;;;;5053690;28;19924;-71
2022/01/19 14:29:53;;;;;;;;;;;;;;;;;;5050118;28;20003;-70
2022/01/19 14:32:20;;;;;;;;;;;;;;;;;;5056742;28;19924;-71
2022/01/19 14:34:47;;;;;;;;;;;;;;;;;;5050496;28;19925;-71
2022/01/19 14:37:14;;;;;;;;;;;;;;;;;;5049024;28;19925;-72
2022/01/19 14:39:41;;;;;;;;;;;;;;;;;;5053832;28;19933;-70
2022/01/19 14:42:08;;;;;;;;;;;;;;;;;;5059229;28;19925;-71
2022/01/19 14:44:41;;;;;;;;;;;;;;;;;;5047384;28;19924;-71
2022/01/19 14:47:17;;;;;;;;;;;;;;;;;;5054298;28;19931;-71
2022/01/19 14:49:43;;;;;;;;;;;;;;;;;;5058542;28;20378;-70
2022/01/19 14:52:10;;;;;;;;;;;;;;;;;;5048110;28;19925;-70
2022/01/19 14:54:38;;;;;;;;;;;;;;;;;;5057331;28;19924;-71
2022/01/19 14:57:05;;;;;;;;;;;;;;;;;;5051600;28;19924;-71
2022/01/19 14:59:32;;;;;;;;;;;;;;;;;;5058645;28;19928;-70
2022/01/19 15:02:01;;;;;;;;;;;;;;;;;;5046358;28;19925;-71
2022/01/19 15:04:28;;;;;;;;;;;;;;;;;;5052179;28;20007;-70
2022/01/19 15:06:58;;;;;;;;;;;;;;;;;;5052522;28;20367;-70
2022/01/19 15:09:25;;;;;;;;;;;;;;;;;;5053349;28;19924;-71
2022/01/19 15:11:52;;;;;;;;;;;;;;;;;;5053624;28;19931;-71
2022/01/19 15:14:19;;;;;;;;;;;;;;;;;;5052506;28;19925;-71
2022/01/19 15:16:46;;;;;;;;;;;;;;;;;;5048637;28;19924;-71
2022/01/19 15:19:13;;;;;;;;;;;;;;;;;;5046151;28;19925;-71
2022/01/19 15:21:40;;;;;;;;;;;;;;;;;;5064946;28;19932;-71
2022/01/19 15:24:07;;;;;;;;;;;;;;;;;;5065934;28;19931;-70
2022/01/19 15:26:34;;;;;;;;;;;;;;;;;;5066314;28;19948;-70
2022/01/19 15:29:01;;;;;;;;;;;;;;;;;;5066589;28;19924;-72
2022/01/19 15:31:28;;;;;;;;;;;;;;;;;;5067528;28;19931;-71
2022/01/19 15:33:55;;;;;;;;;;;;;;;;;;5064547;28;19932;-71
2022/01/19 15:36:22;;;;;;;;;;;;;;;;;;5066125;28;20412;-70
2022/01/19 15:38:49;;;;;;;;;;;;;;;;;;5065246;28;19932;-70
2022/01/19 15:41:15;;;;;;;;;;;;;;;;;;5067046;28;19935;-71
2022/01/19 15:43:42;;;;;;;;;;;;;;;;;;5064262;28;19925;-73
2022/01/19 15:46:09;;;;;;;;;;;;;;;;;;5064578;28;19937;-72
2022/01/19 15:48:36;;;;;;;;;;;;;;;;;;5066972;28;19929;-72
2022/01/19 15:51:03;;;;;;;;;;;;;;;;;;5065321;28;19925;-71
2022/01/19 15:53:31;;;;;;;;;;;;;;;;;;5063904;28;19936;-71
2022/01/19 15:55:59;;;;;;;;;;;;;;;;;;5065298;28;19939;-72
2022/01/19 15:58:25;;;;;;;;;;;;;;;;;;5064073;28;19931;-71
2022/01/19 16:00:52;;;;;;;;;;;;;;;;;;5066197;28;19925;-73
2022/01/19 16:03:19;;;;;;;;;;;;;;;;;;5065145;28;20398;-72
2022/01/19 16:05:46;;;;;;;;;;;;;;;;;;5066752;28;19924;-73
2022/01/19 16:08:13;;;;;;;;;;;;;;;;;;5066124;28;20019;-71
2022/01/19 16:10:41;;;;;;;;;;;;;;;;;;5069864;28;19931;-70
2022/01/19 16:13:07;;;;;;;;;;;;;;;;;;5065498;28;19986;-70
2022/01/19 16:15:34;;;;;;;;;;;;;;;;;;5067313;28;19925;-70
2022/01/19 16:18:01;;;;;;;;;;;;;;;;;;5068068;28;19925;-70
2022/01/19 16:20:29;;;;;;;;;;;;;;;;;;5054958;28;19928;-70
2022/01/19 16:28:25;;;;;;;;;;;;;;;;;;5053612;28;19920;-69
2022/01/19 16:30:52;;;;;;;;;;;;;;;;;;5046257;28;20317;-70
2022/01/19 16:33:19;;;;;;;;;;;;;;;;;;5053366;28;20007;-68
2022/01/19 16:35:46;;;;;;;;;;;;;;;;;;5051313;28;20085;-72
2022/01/19 16:38:13;;;;;;;;;;;;;;;;;;5055421;28;20023;-72
2022/01/19 16:40:40;;;;;;;;;;;;;;;;;;5048208;28;20008;-72
2022/01/19 16:43:07;;;;;;;;;;;;;;;;;;5053588;28;20290;-72
2022/01/19 16:45:34;;;;;;;;;;;;;;;;;;5053537;28;20397;-72
2022/01/19 16:48:04;;;;;;;;;;;;;;;;;;5048552;28;20307;-73
2022/01/19 16:50:31;;;;;;;;;;;;;;;;;;5052796;28;20024;-72
2022/01/19 16:52:58;;;;;;;;;;;;;;;;;;5048754;28;21240;-73
2022/01/19 16:55:25;;;;;;;;;;;;;;;;;;5047863;28;20317;-73
2022/01/19 16:57:52;;;;;;;;;;;;;;;;;;5049913;28;19932;-73
2022/01/19 17:00:19;;;;;;;;;;;;;;;;;;5059164;28;20119;-73
2022/01/19 17:02:46;;;;;;;;;;;;;;;;;;5055478;28;19925;-74
2022/01/19 17:05:12;;;;;;;;;;;;;;;;;;5049676;28;19946;-74
2022/01/19 17:07:39;;;;;;;;;;;;;;;;;;5048744;28;19943;-73
2022/01/19 17:10:10;;;;;;;;;;;;;;;;;;5057256;28;20432;-74
2022/01/19 17:12:38;;;;;;;;;;;;;;;;;;5054895;28;20360;-75
2022/01/19 17:15:15;;;;;;;;;;;;;;;;;;5047891;28;19933;-74
2022/01/19 17:17:46;;;;;;;;;;;;;;;;;;5050679;28;19925;-74
2022/01/19 17:20:13;;;;;;;;;;;;;;;;;;5057578;28;20297;-74
2022/01/19 17:22:40;;;;;;;;;;;;;;;;;;5046452;28;19925;-72
2022/01/19 17:25:07;;;;;;;;;;;;;;;;;;5048706;28;19925;-73
2022/01/19 17:27:35;;;;;;;;;;;;;;;;;;5046505;28;19924;-73
2022/01/19 17:30:01;;;;;;;;;;;;;;;;;;5051881;28;20382;-72
2022/01/19 17:32:28;;;;;;;;;;;;;;;;;;5051778;28;19924;-72
2022/01/19 17:34:56;;;;;;;;;;;;;;;;;;5056871;28;19924;-73
2022/01/19 17:37:23;;;;;;;;;;;;;;;;;;5053017;28;19933;-71
2022/01/19 17:39:50;;;;;;;;;;;;;;;;;;5051527;28;19980;-73
2022/01/19 17:42:18;;;;;;;;;;;;;;;;;;5051643;28;19929;-72
2022/01/19 17:44:45;;;;;;;;;;;;;;;;;;5059355;28;19932;-71
2022/01/19 17:47:23;;;;;;;;;;;;;;;;;;5059710;28;20378;-72
2022/01/19 17:50:07;;;;;;;;;;;;;;;;;;5056141;28;20366;-72
2022/01/19 17:52:34;;;;;;;;;;;;;;;;;;5055947;28;19936;-76
2022/01/19 17:55:01;;;;;;;;;;;;;;;;;;5053642;28;19925;-73
2022/01/19 17:57:28;;;;;;;;;;;;;;;;;;5057904;28;19984;-73
2022/01/19 17:59:55;;;;;;;;;;;;;;;;;;5058914;28;20346;-74